Time;durP1;ratioP1;P1;durP2;ratioP2;P2;SDS_P1;SDS_P2;PMS_P1;PMS_P2;Temp;Humidity;BMP_temperature;BMP_pressure;BME280_temperature;BME280_humidity;BME280_pressure;Samples;Min_cycle;Max_cycle;Signal;HPM_P1;HPM_P2
2022/10/26 00:02:16;;;;;;;3.20;2.73;;;;;;;12.65;100.00;100217.25;5075484;28;20714;-75
2022/10/26 00:04:42;;;;;;;2.47;2.27;;;;;;;12.65;100.00;100220.72;5072633;28;20220;-76
2022/10/26 00:07:07;;;;;;;2.47;2.23;;;;;;;12.68;100.00;100218.97;5073888;28;20321;-75
2022/10/26 00:09:33;;;;;;;3.30;2.53;;;;;;;12.67;100.00;100215.50;5076475;28;20192;-75
2022/10/26 00:11:58;;;;;;;4.00;2.50;;;;;;;12.68;100.00;100212.00;5074644;28;20202;-75
2022/10/26 00:14:24;;;;;;;2.17;1.80;;;;;;;12.70;100.00;100223.22;5072234;28;20194;-75
2022/10/26 00:16:49;;;;;;;3.20;2.47;;;;;;;12.69;100.00;100223.28;5074793;28;20897;-76
2022/10/26 00:19:14;;;;;;;2.33;2.13;;;;;;;12.70;100.00;100233.63;5071380;28;20202;-75
2022/10/26 00:21:40;;;;;;;3.77;2.30;;;;;;;12.68;100.00;100222.41;5079158;28;20220;-75
2022/10/26 00:24:05;;;;;;;3.10;2.37;;;;;;;12.68;100.00;100212.00;5074311;28;20660;-75
2022/10/26 00:26:30;;;;;;;3.43;2.53;;;;;;;12.69;100.00;100212.88;5078678;28;20193;-77
2022/10/26 00:28:57;;;;;;;2.80;2.40;;;;;;;12.68;100.00;100212.00;5079270;28;20208;-75
2022/10/26 00:31:23;;;;;;;2.43;2.23;;;;;;;12.70;100.00;100217.19;5074963;28;20211;-76
2022/10/26 00:33:55;;;;;;;4.27;2.80;;;;;;;12.70;100.00;100217.19;5078210;28;20617;-76
2022/10/26 00:36:21;;;;;;;2.60;2.40;;;;;;;12.69;100.00;100218.94;5080826;28;20195;-77
2022/10/26 00:38:51;;;;;;;3.10;2.50;;;;;;;12.70;100.00;100217.19;5076927;28;20201;-76
2022/10/26 00:41:19;;;;;;;3.57;2.70;;;;;;;12.67;100.00;100214.66;5078961;28;20198;-76
2022/10/26 00:43:44;;;;;;;3.20;2.50;;;;;;;12.67;100.00;100205.09;5077078;28;20640;-76
2022/10/26 00:46:14;;;;;;;4.00;2.70;;;;;;;12.68;100.00;100209.41;5074644;28;20196;-76
2022/10/26 00:48:54;;;;;;;3.60;2.50;;;;;;;12.72;100.00;100210.22;5076141;28;20258;-77
2022/10/26 00:51:26;;;;;;;3.20;2.50;;;;;;;12.72;100.00;100200.69;5078269;28;20177;-75
2022/10/26 00:53:54;;;;;;;2.60;2.37;;;;;;;12.73;100.00;100196.34;5075202;28;20270;-75
2022/10/26 00:56:19;;;;;;;4.67;2.70;;;;;;;12.75;100.00;100194.56;5074358;28;20703;-76
2022/10/26 00:58:45;;;;;;;3.63;3.00;;;;;;;12.75;100.00;100195.44;5071420;28;20228;-78
2022/10/26 01:01:11;;;;;;;3.13;2.80;;;;;;;12.73;100.00;100194.63;5074282;28;20192;-77
2022/10/26 01:03:37;;;;;;;3.10;2.80;;;;;;;12.72;100.00;100195.50;5072157;28;20207;-76
2022/10/26 01:06:04;;;;;;;3.37;3.07;;;;;;;12.70;100.00;100191.22;5076109;28;20637;-75
2022/10/26 01:08:30;;;;;;;3.63;2.53;;;;;;;12.70;100.00;100191.22;5074698;28;20696;-75
2022/10/26 01:10:57;;;;;;;4.33;2.73;;;;;;;12.72;100.00;100186.84;5072247;28;20227;-77
2022/10/26 01:13:27;;;;;;;5.27;3.17;;;;;;;12.73;100.00;100180.75;5075286;28;20269;-75
2022/10/26 01:15:58;;;;;;;4.43;2.97;;;;;;;12.72;100.00;100176.44;5070934;28;20291;-75
2022/10/26 01:18:35;;;;;;;3.13;2.70;;;;;;;12.72;100.00;100169.53;5075131;28;20743;-75
2022/10/26 01:21:25;;;;;;;4.10;2.80;;;;;;;12.72;100.00;100146.16;5079095;28;20612;-76
2022/10/26 01:24:28;;;;;;;3.27;2.50;;;;;;;12.73;100.00;100160.88;5077598;28;20683;-76
2022/10/26 01:27:11;;;;;;;3.03;2.57;;;;;;;12.73;100.00;100163.47;5075661;28;20204;-76
2022/10/26 01:29:45;;;;;;;3.67;2.73;;;;;;;12.74;100.00;100166.91;5080160;28;20211;-76
2022/10/26 01:32:20;;;;;;;5.70;2.60;;;;;;;12.73;100.00;100163.47;5071764;28;20229;-76
2022/10/26 01:34:50;;;;;;;4.93;2.30;;;;;;;12.71;100.00;100162.63;5084388;28;20222;-76
2022/10/26 01:37:23;;;;;;;3.77;2.80;;;;;;;12.70;100.00;100155.72;5077145;28;20193;-76
2022/10/26 01:39:53;;;;;;;2.50;2.20;;;;;;;12.69;100.00;100161.81;5078719;28;20553;-76
2022/10/26 01:42:22;;;;;;;2.90;2.47;;;;;;;12.69;100.00;100164.41;5073907;28;20197;-76
2022/10/26 01:44:55;;;;;;;3.50;2.37;;;;;;;12.69;100.00;100167.00;5081266;28;20196;-76
2022/10/26 01:47:23;;;;;;;4.40;2.80;;;;;;;12.69;100.00;100169.59;5073857;28;20227;-75
2022/10/26 01:49:54;;;;;;;5.37;2.80;;;;;;;12.66;100.00;100164.44;5079117;28;20193;-76
2022/10/26 01:52:20;;;;;;;4.00;2.70;;;;;;;12.65;100.00;100171.41;5080716;28;20202;-77
2022/10/26 01:54:45;;;;;;;2.30;2.10;;;;;;;12.67;100.00;100178.31;5076711;28;20235;-76
2022/10/26 01:57:16;;;;;;;5.63;2.57;;;;;;;12.69;100.00;100199.91;5079239;28;20303;-76
2022/10/26 02:00:08;;;;;;;2.50;2.30;;;;;;;12.70;100.00;100205.06;5077851;28;20230;-76
2022/10/26 02:02:41;;;;;;;2.67;2.33;;;;;;;12.70;100.00;100193.84;5075510;28;20309;-76
2022/10/26 02:05:06;;;;;;;2.77;2.40;;;;;;;12.69;100.00;100195.56;5074388;28;20985;-76
2022/10/26 02:07:52;;;;;;;2.67;2.27;;;;;;;12.69;100.00;100199.91;5080607;28;20185;-76
2022/10/26 02:10:56;;;;;;;3.90;2.60;;;;;;;12.66;100.00;100206.00;5080476;28;20200;-76
2022/10/26 02:13:37;;;;;;;3.37;2.27;;;;;;;12.65;100.00;100212.06;5041134;28;20315;-76
2022/10/26 02:16:17;;;;;;;2.37;2.10;;;;;;;12.66;100.00;100221.56;5054490;28;20669;-76
2022/10/26 02:19:10;;;;;;;2.57;2.23;;;;;;;12.65;100.00;100220.72;5073357;28;20215;-77
2022/10/26 02:21:43;;;;;;;2.27;2.00;;;;;;;12.65;100.00;100240.63;5079994;28;20214;-76
2022/10/26 02:24:11;;;;;;;3.30;2.43;;;;;;;12.63;100.00;100245.84;5077726;28;20300;-76
2022/10/26 02:26:41;;;;;;;3.60;2.50;;;;;;;12.59;100.00;100235.56;5076412;28;20207;-76
2022/10/26 02:29:10;;;;;;;3.67;2.27;;;;;;;12.54;100.00;100227.88;5080126;28;20199;-76
2022/10/26 02:31:37;;;;;;;3.83;2.20;;;;;;;12.46;100.00;100225.41;5081850;28;20211;-75
2022/10/26 02:34:06;;;;;;;2.33;2.13;;;;;;;12.43;100.00;100225.47;5076268;28;20703;-76
2022/10/26 02:36:35;;;;;;;2.93;2.37;;;;;;;12.42;100.00;100228.94;5078501;28;20275;-76
2022/10/26 02:39:04;;;;;;;3.13;2.63;;;;;;;12.44;100.00;100240.16;5082575;28;20286;-77
2022/10/26 02:41:31;;;;;;;3.53;2.53;;;;;;;12.44;100.00;100271.28;5078446;28;20190;-76
2022/10/26 02:44:05;;;;;;;2.60;2.40;;;;;;;12.47;100.00;100272.97;5075057;28;20205;-76
2022/10/26 02:46:31;;;;;;;2.80;2.47;;;;;;;12.47;100.00;100254.81;5080406;28;20180;-76
2022/10/26 02:48:57;;;;;;;2.53;2.33;;;;;;;12.46;100.00;100248.78;5075427;28;20201;-76
2022/10/26 02:51:33;;;;;;;3.47;2.57;;;;;;;12.47;100.00;100250.47;5075186;28;20192;-75
2022/10/26 02:54:27;;;;;;;5.57;3.07;;;;;;;12.47;100.00;100255.69;5082334;28;20573;-75
2022/10/26 02:56:57;;;;;;;2.63;2.43;;;;;;;12.48;100.00;100248.72;5069139;28;20211;-75
2022/10/26 02:59:27;;;;;;;3.73;2.50;;;;;;;12.49;100.00;100250.44;5078842;28;20192;-78
2022/10/26 03:01:53;;;;;;;3.83;2.70;;;;;;;12.52;100.00;100246.94;5073538;28;20202;-76
2022/10/26 03:04:19;;;;;;;3.40;2.47;;;;;;;12.52;100.00;100240.00;5076678;28;20267;-77
2022/10/26 03:06:52;;;;;;;3.77;2.60;;;;;;;12.56;100.00;100238.22;5075789;28;20269;-76
2022/10/26 03:09:17;;;;;;;3.10;2.80;;;;;;;12.57;100.00;100240.75;5075291;28;20234;-78
2022/10/26 03:11:43;;;;;;;3.40;2.50;;;;;;;12.57;100.00;100255.50;5070995;28;20767;-77
2022/10/26 03:14:08;;;;;;;3.80;2.67;;;;;;;12.55;100.00;100250.34;5081852;28;20748;-77
2022/10/26 03:16:33;;;;;;;4.73;2.73;;;;;;;12.55;100.00;100252.06;5080869;28;22003;-75
2022/10/26 03:18:58;;;;;;;6.63;6.03;;;;;;;12.55;100.00;100246.88;5080731;28;20200;-78
2022/10/26 03:21:24;;;;;;;7.30;6.80;;;;;;;12.54;100.00;100246.03;5076966;28;20598;-76
2022/10/26 03:23:50;;;;;;;5.43;4.93;;;;;;;12.52;100.00;100244.34;5075470;28;20193;-76
2022/10/26 03:26:15;;;;;;;4.80;4.30;;;;;;;12.50;100.00;100239.19;5076108;28;20181;-77
2022/10/26 03:28:41;;;;;;;4.90;4.50;;;;;;;12.49;100.00;100246.09;5074503;28;20195;-77
2022/10/26 03:31:06;;;;;;;6.50;5.00;;;;;;;12.48;100.00;100240.94;5074868;28;20271;-77
2022/10/26 03:33:32;;;;;;;6.43;4.77;;;;;;;12.47;100.00;100247.88;5072710;28;20582;-76
2022/10/26 03:35:57;;;;;;;10.00;9.20;;;;;;;12.45;100.00;100234.06;5069694;28;20208;-76
2022/10/26 03:38:22;;;;;;;6.37;5.77;;;;;;;12.44;100.00;100234.97;5071451;28;20984;-76
2022/10/26 03:40:48;;;;;;;5.10;4.67;;;;;;;12.45;100.00;100228.00;5073788;28;20219;-76
2022/10/26 03:43:13;;;;;;;5.20;4.70;;;;;;;12.45;100.00;100235.78;5075444;28;20286;-77
2022/10/26 03:45:38;;;;;;;5.03;4.63;;;;;;;12.45;100.00;100236.66;5067196;28;20198;-76
2022/10/26 03:48:04;;;;;;;4.53;4.23;;;;;;;12.45;100.00;100234.06;5069717;28;20652;-76
2022/10/26 03:50:29;;;;;;;4.00;3.70;;;;;;;12.46;100.00;100227.13;5070511;28;20234;-77
2022/10/26 03:52:54;;;;;;;3.70;3.37;;;;;;;12.48;100.00;100240.94;5070308;28;20337;-77
2022/10/26 03:55:19;;;;;;;3.37;3.03;;;;;;;12.48;100.00;100239.19;5069605;28;20260;-77
2022/10/26 03:57:45;;;;;;;3.30;3.03;;;;;;;12.50;100.00;100227.03;5081482;28;20570;-77
2022/10/26 04:00:14;;;;;;;4.17;3.00;;;;;;;12.52;100.00;100233.94;5080006;28;20276;-76
2022/10/26 04:02:39;;;;;;;5.33;3.27;;;;;;;12.52;100.00;100229.63;5072847;28;20204;-77
2022/10/26 04:05:05;;;;;;;4.90;2.87;;;;;;;12.54;100.00;100222.69;5067821;28;20921;-76
2022/10/26 04:07:31;;;;;;;3.50;3.20;;;;;;;12.58;100.00;100223.47;5072326;28;20193;-76
2022/10/26 04:09:56;;;;;;;3.60;3.30;;;;;;;12.60;100.00;100211.31;5070874;28;20535;-76
2022/10/26 04:12:21;;;;;;;3.43;3.13;;;;;;;12.63;100.00;100198.25;5071497;28;20219;-76
2022/10/26 04:14:47;;;;;;;3.23;2.93;;;;;;;12.65;100.00;100199.09;5070595;28;20194;-76
2022/10/26 04:17:12;;;;;;;3.50;3.20;;;;;;;12.65;100.00;100199.97;5074189;28;20210;-77
2022/10/26 04:19:38;;;;;;;4.93;3.53;;;;;;;12.68;100.00;100183.47;5073612;28;20648;-76
2022/10/26 04:22:03;;;;;;;4.13;2.80;;;;;;;12.69;100.00;100171.34;5073924;28;20262;-76
2022/10/26 04:24:28;;;;;;;4.13;3.40;;;;;;;12.67;100.00;100160.97;5071364;28;20184;-76
2022/10/26 04:26:53;;;;;;;4.43;3.57;;;;;;;12.64;100.00;100145.44;5074575;28;20231;-75
2022/10/26 04:29:19;;;;;;;5.03;3.53;;;;;;;12.60;100.00;100144.66;5070622;28;20212;-76
2022/10/26 04:31:44;;;;;;;3.87;3.47;;;;;;;12.55;100.00;100172.47;5071615;28;20290;-76
2022/10/26 04:34:09;;;;;;;5.23;3.33;;;;;;;12.57;100.00;100177.63;5069873;28;20183;-75
2022/10/26 04:36:35;;;;;;;3.70;3.10;;;;;;;12.58;100.00;100189.72;5069404;28;20710;-77
2022/10/26 04:39:00;;;;;;;3.77;3.13;;;;;;;12.59;100.00;100191.44;5070315;28;20183;-76
2022/10/26 04:41:26;;;;;;;3.70;2.70;;;;;;;12.62;100.00;100193.97;5075702;28;20193;-77
2022/10/26 04:43:51;;;;;;;5.07;4.17;;;;;;;12.62;100.00;100200.00;5073145;28;20203;-76
2022/10/26 04:46:16;;;;;;;5.00;4.50;;;;;;;12.63;100.00;100193.94;5070374;28;20197;-76
2022/10/26 04:48:42;;;;;;;3.97;3.67;;;;;;;12.64;100.00;100197.38;5068730;28;20213;-76
2022/10/26 04:51:07;;;;;;;3.90;3.60;;;;;;;12.62;100.00;100181.00;5070972;28;20217;-77
2022/10/26 04:53:33;;;;;;;5.17;3.90;;;;;;;12.57;100.00;100183.66;5072459;28;20963;-76
2022/10/26 04:55:59;;;;;;;4.20;3.73;;;;;;;12.54;100.00;100191.53;5069337;28;20190;-76
2022/10/26 04:58:26;;;;;;;5.10;3.47;;;;;;;12.52;100.00;100192.41;5072524;28;20233;-76
2022/10/26 05:00:51;;;;;;;5.83;3.60;;;;;;;12.50;100.00;100198.50;5070056;28;20220;-76
2022/10/26 05:03:16;;;;;;;4.10;3.27;;;;;;;12.50;100.00;100201.09;5069610;28;20326;-77
2022/10/26 05:05:41;;;;;;;4.90;3.73;;;;;;;12.50;100.00;100210.63;5071736;28;20614;-76
2022/10/26 05:08:07;;;;;;;4.53;4.10;;;;;;;12.49;100.00;100211.50;5074367;28;20196;-76
2022/10/26 05:10:32;;;;;;;4.80;3.97;;;;;;;12.49;100.00;100217.53;5071843;28;21021;-76
2022/10/26 05:12:59;;;;;;;4.27;3.50;;;;;;;12.49;100.00;100214.09;5070297;28;20313;-76
2022/10/26 05:15:25;;;;;;;6.60;4.10;;;;;;;12.47;100.00;100219.34;5071079;28;20774;-76
2022/10/26 05:17:56;;;;;;;7.63;4.00;;;;;;;12.47;100.00;100216.75;5075972;28;20321;-76
2022/10/26 05:20:27;;;;;;;5.70;3.57;;;;;;;12.46;100.00;100220.22;5070260;28;20188;-76
2022/10/26 05:22:53;;;;;;;6.93;3.70;;;;;;;12.46;100.00;100233.19;5069173;28;20218;-75
2022/10/26 05:25:18;;;;;;;4.97;3.50;;;;;;;12.47;100.00;100245.28;5073806;28;20185;-75
2022/10/26 05:27:43;;;;;;;4.53;3.80;;;;;;;12.47;100.00;100250.47;5073038;28;20579;-76
2022/10/26 05:30:09;;;;;;;4.10;3.37;;;;;;;12.48;100.00;100253.91;5068767;28;20283;-75
2022/10/26 05:32:34;;;;;;;5.57;3.80;;;;;;;12.50;100.00;100254.75;5077792;28;20403;-75
2022/10/26 05:35:00;;;;;;;3.80;3.40;;;;;;;12.48;100.00;100265.13;5073987;28;20189;-75
2022/10/26 05:37:27;;;;;;;3.93;3.30;;;;;;;12.49;100.00;100273.81;5080592;28;20342;-75
2022/10/26 05:39:53;;;;;;;3.93;3.57;;;;;;;12.47;100.00;100276.44;5080140;28;20208;-76
2022/10/26 05:42:19;;;;;;;4.10;2.90;;;;;;;12.45;100.00;100277.31;5079434;28;20593;-75
2022/10/26 05:44:44;;;;;;;4.47;3.20;;;;;;;12.44;100.00;100279.06;5078753;28;20190;-75
2022/10/26 05:47:10;;;;;;;3.87;3.30;;;;;;;12.44;100.00;100284.28;5077104;28;20182;-74
2022/10/26 05:49:35;;;;;;;3.60;3.30;;;;;;;12.45;100.00;100296.38;5076023;28;20199;-75
2022/10/26 05:52:00;;;;;;;4.60;3.30;;;;;;;12.46;100.00;100298.09;5074848;28;20215;-74
2022/10/26 05:54:26;;;;;;;5.10;3.20;;;;;;;12.48;100.00;100301.47;5074583;28;20210;-74
2022/10/26 05:56:51;;;;;;;4.33;3.23;;;;;;;12.50;100.00;100298.88;5072406;28;20204;-77
2022/10/26 05:59:17;;;;;;;3.67;3.17;;;;;;;12.52;100.00;100304.91;5072455;28;20291;-76
2022/10/26 06:01:47;;;;;;;3.53;3.13;;;;;;;12.54;100.00;100305.75;5074432;28;20718;-76
2022/10/26 06:04:15;;;;;;;3.90;3.10;;;;;;;12.54;100.00;100315.25;5073315;28;20197;-76
2022/10/26 06:06:43;;;;;;;3.30;3.00;;;;;;;12.54;100.00;100323.91;5066508;28;20225;-77
2022/10/26 06:09:11;;;;;;;4.00;3.30;;;;;;;12.54;100.00;100317.84;5076498;28;20184;-77
2022/10/26 06:11:36;;;;;;;4.80;3.50;;;;;;;12.55;100.00;100332.53;5079607;28;20204;-76
2022/10/26 06:14:02;;;;;;;4.63;3.13;;;;;;;12.54;100.00;100336.91;5080538;28;20193;-76
2022/10/26 06:17:00;;;;;;;3.70;3.30;;;;;;;12.54;100.00;100329.09;5070809;28;20254;-77
2022/10/26 06:19:51;;;;;;;3.80;3.50;;;;;;;12.56;100.00;100323.88;5075666;28;20876;-75
2022/10/26 06:22:42;;;;;;;3.37;3.07;;;;;;;12.58;100.00;100328.16;5082112;28;20690;-79
2022/10/26 06:25:52;;;;;;;3.47;3.17;;;;;;;12.62;100.00;100327.22;5076200;28;20513;-76
2022/10/26 06:28:35;;;;;;;6.73;3.40;;;;;;;12.64;100.00;100330.66;5070295;28;20215;-77
2022/10/26 06:31:01;;;;;;;3.73;3.20;;;;;;;12.67;100.00;100329.75;5072667;28;20193;-77
2022/10/26 06:33:27;;;;;;;3.40;3.10;;;;;;;12.69;100.00;100332.31;5073123;28;20593;-76
2022/10/26 06:36:08;;;;;;;4.03;3.63;;;;;;;12.72;100.00;100316.66;5072604;28;20248;-77
2022/10/26 06:38:36;;;;;;;3.47;3.17;;;;;;;12.74;100.00;100327.88;5074038;28;20257;-77
2022/10/26 06:41:02;;;;;;;5.63;3.23;;;;;;;12.77;100.00;100315.72;5073175;28;20200;-77
2022/10/26 06:43:33;;;;;;;3.43;3.07;;;;;;;12.80;100.00;100333.84;5074273;28;20364;-76
2022/10/26 06:46:30;;;;;;;3.93;3.13;;;;;;;12.83;100.00;100327.75;5071516;28;20185;-76
2022/10/26 06:49:04;;;;;;;4.00;3.57;;;;;;;12.86;100.00;100327.66;5078535;28;20185;-76
2022/10/26 06:51:32;;;;;;;3.63;3.33;;;;;;;12.91;100.00;100331.06;5075518;28;20181;-77
2022/10/26 06:54:18;;;;;;;4.10;3.70;;;;;;;12.96;100.00;100331.84;5071549;28;20208;-76
2022/10/26 06:56:44;;;;;;;6.10;3.63;;;;;;;13.00;100.00;100334.38;5075340;28;20212;-75
2022/10/26 06:59:20;;;;;;;4.40;3.40;;;;;;;13.02;100.00;100337.78;5074395;28;20213;-75
2022/10/26 07:01:45;;;;;;;3.83;3.43;;;;;;;13.04;100.00;100336.91;5072404;28;20215;-78
2022/10/26 07:04:10;;;;;;;4.00;3.57;;;;;;;13.06;100.00;100342.03;5075088;28;20684;-76
2022/10/26 07:06:36;;;;;;;6.17;4.03;;;;;;;13.08;100.00;100348.91;5080171;28;20193;-75
2022/10/26 07:09:01;;;;;;;2.87;2.57;;;;;;;13.11;100.00;100353.22;5073438;28;20190;-75
2022/10/26 07:11:26;;;;;;;3.93;3.00;;;;;;;13.15;100.00;100365.28;5070778;28;20228;-76
2022/10/26 07:13:52;;;;;;;4.53;3.33;;;;;;;13.18;100.00;100364.34;5076514;28;20568;-77
2022/10/26 07:16:17;;;;;;;4.33;3.10;;;;;;;13.21;100.00;100364.31;5076555;28;20310;-77
2022/10/26 07:18:42;;;;;;;3.77;3.10;;;;;;;13.24;100.00;100372.03;5075760;28;20216;-76
2022/10/26 07:21:09;;;;;;;3.00;2.70;;;;;;;13.26;100.00;100372.84;5068574;28;20198;-76
2022/10/26 07:23:34;;;;;;;3.67;2.63;;;;;;;13.29;100.00;100369.38;5074192;28;20212;-76
2022/10/26 07:25:59;;;;;;;4.93;2.83;;;;;;;13.31;100.00;100363.25;5073450;28;20571;-74
2022/10/26 07:28:25;;;;;;;5.37;3.07;;;;;;;13.34;100.00;100370.13;5073153;28;20193;-76
2022/10/26 07:30:50;;;;;;;3.43;2.97;;;;;;;13.38;100.00;100361.38;5074894;28;20189;-76
2022/10/26 07:33:15;;;;;;;3.20;2.90;;;;;;;13.46;100.00;100363.84;5071806;28;21233;-75
2022/10/26 07:35:41;;;;;;;3.20;2.90;;;;;;;13.54;100.00;100357.63;5072256;28;20200;-76
2022/10/26 07:38:07;;;;;;;3.63;3.13;;;;;;;13.65;100.00;100354.81;5069738;28;20206;-76
2022/10/26 07:40:32;;;;;;;2.73;2.53;;;;;;;13.74;100.00;100355.50;5075292;28;20197;-75
2022/10/26 07:42:59;;;;;;;3.23;2.93;;;;;;;13.83;100.00;100373.53;5072790;28;20785;-76
2022/10/26 07:45:27;;;;;;;4.40;3.20;;;;;;;13.93;100.00;100380.22;5077237;28;20189;-74
2022/10/26 07:47:52;;;;;;;3.70;2.93;;;;;;;14.02;100.00;100381.78;5074556;28;20247;-76
2022/10/26 07:50:18;;;;;;;3.07;2.80;;;;;;;14.12;100.00;100382.44;5082269;28;20276;-75
2022/10/26 07:52:43;;;;;;;3.23;2.60;;;;;;;14.21;100.00;100384.84;5072356;28;20220;-75
2022/10/26 07:55:10;;;;;;;3.23;2.80;;;;;;;14.30;100.00;100388.97;5071312;28;20202;-75
2022/10/26 07:57:36;;;;;;;3.30;3.00;;;;;;;14.37;100.00;100397.50;5074834;28;20622;-77
2022/10/26 08:00:05;;;;;;;3.47;2.93;;;;;;;14.44;100.00;100401.69;5072319;28;20250;-75
2022/10/26 08:02:34;;;;;;;3.73;2.60;;;;;;;14.54;100.00;100412.72;5069713;28;20206;-75
2022/10/26 08:05:00;;;;;;;3.27;2.60;;;;;;;14.64;100.00;100420.28;5072738;28;20177;-76
2022/10/26 08:07:25;;;;;;;3.13;2.83;;;;;;;14.77;100.00;100417.41;5065759;28;20186;-76
2022/10/26 08:09:51;;;;;;;3.00;2.80;;;;;;;14.89;100.00;100421.47;5074002;28;20324;-77
2022/10/26 08:12:17;;;;;;;5.03;2.60;;;;;;;15.03;100.00;100431.56;5073942;28;20214;-76
2022/10/26 08:14:42;;;;;;;3.23;2.60;;;;;;;15.15;100.00;100423.44;5072381;28;20190;-75
2022/10/26 08:17:08;;;;;;;3.60;2.50;;;;;;;15.31;100.00;100429.09;5070615;28;20579;-76
2022/10/26 08:19:33;;;;;;;3.43;2.23;;;;;;;15.45;100.00;100444.38;5072140;28;20270;-75
2022/10/26 08:21:58;;;;;;;3.17;2.27;;;;;;;15.59;100.00;100441.38;5070027;28;20230;-75
2022/10/26 08:24:24;;;;;;;2.30;1.90;;;;;;;15.72;100.00;100428.84;5071488;28;20185;-75
2022/10/26 08:26:49;;;;;;;2.00;1.80;;;;;;;15.85;100.00;100438.06;5072158;28;20217;-75
2022/10/26 08:29:14;;;;;;;2.20;1.70;;;;;;;15.96;100.00;100445.59;5072531;28;20196;-75
2022/10/26 08:31:40;;;;;;;2.37;1.90;;;;;;;16.06;100.00;100447.94;5067760;28;20724;-75
2022/10/26 08:34:05;;;;;;;2.57;1.93;;;;;;;16.19;100.00;100435.38;5070932;28;20220;-77
2022/10/26 08:36:30;;;;;;;3.10;2.30;;;;;;;16.36;100.00;100434.88;5070999;28;20277;-76
2022/10/26 08:38:56;;;;;;;3.23;2.33;;;;;;;16.56;100.00;100427.28;5074935;28;20207;-74
2022/10/26 08:41:34;;;;;;;3.87;2.47;;;;;;;16.74;100.00;100428.44;5069773;28;20185;-75
2022/10/26 08:44:07;;;;;;;3.80;2.10;;;;;;;16.91;100.00;100440.97;5072106;28;20191;-75
2022/10/26 08:46:38;;;;;;;3.63;2.30;;;;;;;17.11;100.00;100434.22;5071843;28;20240;-75
2022/10/26 08:49:23;;;;;;;3.47;2.17;;;;;;;17.37;100.00;100441.19;5067939;28;20192;-75
2022/10/26 08:51:51;;;;;;;2.30;2.10;;;;;;;17.67;100.00;100455.88;5075842;28;20220;-76
2022/10/26 08:54:21;;;;;;;2.73;2.50;;;;;;;17.97;100.00;100455.66;5067828;28;20203;-75
2022/10/26 08:56:54;;;;;;;3.37;2.53;;;;;;;18.27;100.00;100472.00;5069071;28;20263;-75
2022/10/26 08:59:41;;;;;;;3.67;2.77;;;;;;;18.33;100.00;100470.06;5070577;28;20223;-75
2022/10/26 09:02:14;;;;;;;3.27;2.67;;;;;;;18.30;100.00;100475.41;5073285;28;20345;-75
2022/10/26 09:04:40;;;;;;;5.03;2.83;;;;;;;18.26;100.00;100485.16;5067637;28;20186;-75
2022/10/26 09:07:15;;;;;;;3.70;2.53;;;;;;;18.24;100.00;100464.25;5076146;28;20185;-76
2022/10/26 09:09:47;;;;;;;3.63;2.63;;;;;;;18.21;100.00;100474.88;5068137;28;20193;-76
2022/10/26 09:12:50;;;;;;;3.07;2.50;;;;;;;18.06;100.00;100471.06;5071591;28;20217;-76
2022/10/26 09:15:39;;;;;;;4.53;2.43;;;;;;;18.03;100.00;100471.16;5072745;28;20238;-76
2022/10/26 09:18:23;;;;;;;2.93;2.30;;;;;;;18.06;100.00;100459.75;5074025;28;20262;-77
2022/10/26 09:20:56;;;;;;;3.90;2.60;;;;;;;18.19;100.00;100473.19;5073588;28;20330;-77
2022/10/26 09:23:46;;;;;;;2.90;2.50;;;;;;;18.30;100.00;100472.81;5072930;28;20819;-76
2022/10/26 09:26:31;;;;;;;3.43;2.53;;;;;;;18.27;100.00;100476.41;5072072;28;20731;-75
2022/10/26 09:29:01;;;;;;;3.90;2.40;;;;;;;18.19;100.00;100473.19;5072143;28;20293;-76
2022/10/26 09:31:40;;;;;;;3.47;2.37;;;;;;;18.08;100.00;100490.19;5072756;28;20330;-77
2022/10/26 09:34:11;;;;;;;3.73;2.27;;;;;;;17.98;100.00;100489.66;5067196;28;20192;-76
2022/10/26 09:36:37;;;;;;;3.67;2.10;;;;;;;17.94;100.00;100492.44;5068676;28;20193;-77
2022/10/26 09:39:23;;;;;;;5.13;2.90;;;;;;;17.94;100.00;100495.88;5074198;28;20185;-76
2022/10/26 09:41:59;;;;;;;3.07;2.40;;;;;;;18.03;100.00;100493.88;5074846;28;20213;-77
2022/10/26 09:44:33;;;;;;;4.10;2.77;;;;;;;18.12;100.00;100511.88;5076933;28;20176;-76
2022/10/26 09:47:11;;;;;;;4.83;2.53;;;;;;;18.22;100.00;100502.78;5071083;28;20602;-77
2022/10/26 09:49:47;;;;;;;3.80;2.67;;;;;;;18.31;100.00;100516.44;5076423;28;20205;-76
2022/10/26 09:52:13;;;;;;;3.77;2.30;;;;;;;18.32;100.00;100515.53;5074770;28;20204;-75
2022/10/26 09:54:39;;;;;;;2.90;2.53;;;;;;;18.27;100.00;100523.56;5068100;28;20201;-77
2022/10/26 09:57:06;;;;;;;5.07;2.53;;;;;;;18.25;100.00;100528.00;5074299;28;20684;-76
2022/10/26 09:59:36;;;;;;;3.20;2.43;;;;;;;18.31;100.00;100529.53;5072804;28;20894;-75
2022/10/26 10:02:35;;;;;;;3.27;2.50;;;;;;;18.42;100.00;100527.34;5068373;28;20311;-76
2022/10/26 10:05:00;;;;;;;3.33;2.33;;;;;;;18.63;100.00;100533.53;5068368;28;20267;-77
2022/10/26 10:07:26;;;;;;;5.70;2.70;;;;;;;18.86;100.00;100535.25;5068922;28;20272;-77
2022/10/26 10:10:13;;;;;;;3.90;2.43;;;;;;;19.09;100.00;100527.41;5073088;28;20226;-77
2022/10/26 10:12:38;;;;;;;3.20;2.80;;;;;;;19.18;100.00;100534.91;5073249;28;20258;-77
2022/10/26 10:15:04;;;;;;;4.67;2.73;;;;;;;19.15;100.00;100530.63;5070872;28;20275;-75
2022/10/26 10:17:30;;;;;;;4.47;2.83;;;;;;;19.08;100.00;100544.94;5074125;28;20957;-76
2022/10/26 10:20:06;;;;;;;5.53;3.00;;;;;;;19.07;100.00;100535.34;5074375;28;20711;-77
2022/10/26 10:22:31;;;;;;;4.33;2.80;;;;;;;19.09;100.00;100548.41;5075305;28;20209;-76
2022/10/26 10:25:00;;;;;;;3.43;2.50;;;;;;;19.16;100.00;100542.00;5076303;28;20571;-75
2022/10/26 10:27:28;;;;;;;2.83;2.53;;;;;;;19.28;100.00;100551.97;5072979;28;20216;-75
2022/10/26 10:29:55;;;;;;;4.47;2.57;;;;;;;19.41;100.00;100554.97;5071933;28;20277;-75
2022/10/26 10:32:24;;;;;;;4.83;2.30;;;;;;;19.50;100.00;100554.56;5071604;28;20587;-79
2022/10/26 10:34:52;;;;;;;5.77;2.83;;;;;;;19.62;100.00;100566.31;5076598;28;20200;-75
2022/10/26 10:37:35;;;;;;;4.33;2.63;;;;;;;19.73;100.00;100563.25;5072185;28;20216;-76
2022/10/26 10:40:02;;;;;;;4.93;2.43;;;;;;;19.84;100.00;100557.50;5065305;28;20289;-77
2022/10/26 10:42:34;;;;;;;4.40;2.60;;;;;;;19.93;100.00;100569.41;5070211;28;20993;-77
2022/10/26 10:45:01;;;;;;;4.60;2.70;;;;;;;19.98;100.00;100574.47;5069460;28;20189;-77
2022/10/26 10:47:30;;;;;;;4.70;2.83;;;;;;;20.05;100.00;100570.66;5071218;28;20190;-76
2022/10/26 10:49:58;;;;;;;4.53;2.40;;;;;;;20.12;100.00;100566.84;5073176;28;20214;-76
2022/10/26 10:52:33;;;;;;;6.30;3.27;;;;;;;20.12;100.00;100569.47;5072830;28;20627;-77
2022/10/26 10:55:20;;;;;;;3.87;2.27;;;;;;;20.09;100.00;100572.25;5079960;28;20192;-76
2022/10/26 10:57:58;;;;;;;4.60;2.67;;;;;;;20.09;100.00;100578.34;5071713;28;20241;-77
2022/10/26 11:00:24;;;;;;;4.20;2.40;;;;;;;20.06;100.00;100572.38;5078495;28;20732;-76
2022/10/26 11:03:08;;;;;;;2.80;2.23;;;;;;;20.08;100.00;100573.16;5080155;28;20295;-75
2022/10/26 11:05:49;;;;;;;5.07;2.70;;;;;;;20.07;100.00;100574.91;5071052;28;20213;-75
2022/10/26 11:08:27;;;;;;;3.67;2.43;;;;;;;20.10;100.00;100585.31;5071884;28;20333;-76
2022/10/26 11:11:05;;;;;;;5.07;2.17;;;;;;;20.17;100.00;100588.50;5070763;28;20185;-75
2022/10/26 11:13:37;;;;;;;4.17;2.37;;;;;;;20.24;100.00;100589.97;5068916;28;20225;-76
2022/10/26 11:16:08;;;;;;;4.43;2.17;;;;;;;20.34;100.00;100587.78;5074644;28;20264;-75
2022/10/26 11:18:39;;;;;;;2.73;2.10;;;;;;;20.52;100.00;100579.94;5065963;28;20221;-74
2022/10/26 11:21:30;;;;;;;4.43;2.60;;;;;;;20.86;100.00;100583.69;5071995;28;20200;-74
2022/10/26 11:24:24;;;;;;;5.93;2.33;;;;;;;21.19;100.00;100579.47;5068850;28;20718;-76
2022/10/26 11:26:56;;;;;;;2.83;2.00;;;;;;;21.45;100.00;100583.47;5067016;28;20194;-76
2022/10/26 11:29:40;;;;;;;3.00;2.20;;;;;;;21.53;100.00;100583.09;5069302;28;20231;-78
2022/10/26 11:32:18;;;;;;;4.67;2.23;;;;;;;21.53;100.00;100573.41;5071518;28;20292;-77